sensor_id;sensor_type;location;lat;lon;timestamp;P1;durP1;ratioP1;P2;durP2;ratioP2
55467;SDS011;41332;42.702;23.200;2022-11-21T00:01:31;4.93;;;3.92;;
55467;SDS011;41332;42.702;23.200;2022-11-21T00:03:56;4.15;;;3.42;;
55467;SDS011;41332;42.702;23.200;2022-11-21T00:06:22;8.23;;;6.40;;
55467;SDS011;41332;42.702;23.200;2022-11-21T00:08:47;5.50;;;3.83;;
55467;SDS011;41332;42.702;23.200;2022-11-21T00:11:13;4.38;;;3.97;;
55467;SDS011;41332;42.702;23.200;2022-11-21T00:13:39;3.92;;;3.63;;
55467;SDS011;41332;42.702;23.200;2022-11-21T00:16:05;3.63;;;3.33;;
55467;SDS011;41332;42.702;23.200;2022-11-21T00:18:33;4.95;;;3.17;;
55467;SDS011;41332;42.702;23.200;2022-11-21T00:21:03;4.57;;;3.43;;
55467;SDS011;41332;42.702;23.200;2022-11-21T00:23:29;6.00;;;3.28;;
55467;SDS011;41332;42.702;23.200;2022-11-21T00:25:55;3.40;;;2.83;;
55467;SDS011;41332;42.702;23.200;2022-11-21T00:28:20;4.03;;;2.97;;
55467;SDS011;41332;42.702;23.200;2022-11-21T00:30:46;9.05;;;5.75;;
55467;SDS011;41332;42.702;23.200;2022-11-21T00:33:11;10.02;;;6.57;;
55467;SDS011;41332;42.702;23.200;2022-11-21T00:35:37;13.00;;;7.22;;
55467;SDS011;41332;42.702;23.200;2022-11-21T00:38:02;9.43;;;7.30;;
55467;SDS011;41332;42.702;23.200;2022-11-21T00:40:27;8.52;;;5.50;;
55467;SDS011;41332;42.702;23.200;2022-11-21T00:42:53;6.45;;;5.28;;
55467;SDS011;41332;42.702;23.200;2022-11-21T00:45:18;5.47;;;4.95;;
55467;SDS011;41332;42.702;23.200;2022-11-21T00:47:43;6.63;;;5.78;;
55467;SDS011;41332;42.702;23.200;2022-11-21T00:50:09;7.20;;;5.50;;
55467;SDS011;41332;42.702;23.200;2022-11-21T00:52:34;9.65;;;6.63;;
55467;SDS011;41332;42.702;23.200;2022-11-21T00:55:00;6.40;;;5.50;;
55467;SDS011;41332;42.702;23.200;2022-11-21T00:57:25;6.90;;;5.55;;
55467;SDS011;41332;42.702;23.200;2022-11-21T00:59:50;6.18;;;4.63;;
55467;SDS011;41332;42.702;23.200;2022-11-21T01:02:16;8.50;;;4.43;;
55467;SDS011;41332;42.702;23.200;2022-11-21T01:04:41;4.28;;;2.92;;
55467;SDS011;41332;42.702;23.200;2022-11-21T01:07:07;3.08;;;2.63;;
55467;SDS011;41332;42.702;23.200;2022-11-21T01:09:32;6.45;;;2.75;;
55467;SDS011;41332;42.702;23.200;2022-11-21T01:11:57;1.80;;;1.33;;
55467;SDS011;41332;42.702;23.200;2022-11-21T01:14:23;2.72;;;0.80;;
55467;SDS011;41332;42.702;23.200;2022-11-21T01:16:48;2.95;;;0.52;;
55467;SDS011;41332;42.702;23.200;2022-11-21T01:19:14;0.73;;;0.73;;
55467;SDS011;41332;42.702;23.200;2022-11-21T01:21:40;0.70;;;0.70;;
55467;SDS011;41332;42.702;23.200;2022-11-21T01:24:05;5.25;;;0.70;;
55467;SDS011;41332;42.702;23.200;2022-11-21T01:26:31;0.85;;;0.82;;
55467;SDS011;41332;42.702;23.200;2022-11-21T01:28:57;1.80;;;0.77;;
55467;SDS011;41332;42.702;23.200;2022-11-21T01:31:27;1.88;;;0.68;;
55467;SDS011;41332;42.702;23.200;2022-11-21T01:33:53;5.40;;;1.98;;
55467;SDS011;41332;42.702;23.200;2022-11-21T01:38:47;6.63;;;0.80;;
55467;SDS011;41332;42.702;23.200;2022-11-21T01:41:16;0.40;;;0.30;;
55467;SDS011;41332;42.702;23.200;2022-11-21T01:43:43;0.93;;;0.50;;
55467;SDS011;41332;42.702;23.200;2022-11-21T01:54:19;2.25;;;1.20;;
55467;SDS011;41332;42.702;23.200;2022-11-21T01:57:02;1.02;;;0.70;;
55467;SDS011;41332;42.702;23.200;2022-11-21T02:02:58;2.92;;;0.70;;
55467;SDS011;41332;42.702;23.200;2022-11-21T02:05:28;0.65;;;0.40;;
55467;SDS011;41332;42.702;23.200;2022-11-21T02:07:57;0.63;;;0.63;;
55467;SDS011;41332;42.702;23.200;2022-11-21T02:10:27;1.65;;;0.70;;
55467;SDS011;41332;42.702;23.200;2022-11-21T02:12:54;4.63;;;0.77;;
55467;SDS011;41332;42.702;23.200;2022-11-21T02:15:23;0.30;;;0.30;;
55467;SDS011;41332;42.702;23.200;2022-11-21T02:17:51;0.50;;;0.50;;
55467;SDS011;41332;42.702;23.200;2022-11-21T02:20:24;1.27;;;0.22;;
55467;SDS011;41332;42.702;23.200;2022-11-21T02:25:42;3.63;;;0.85;;
55467;SDS011;41332;42.702;23.200;2022-11-21T02:28:10;7.40;;;0.80;;
55467;SDS011;41332;42.702;23.200;2022-11-21T02:30:38;5.32;;;0.98;;
55467;SDS011;41332;42.702;23.200;2022-11-21T02:33:05;3.47;;;0.80;;
55467;SDS011;41332;42.702;23.200;2022-11-21T02:35:30;2.42;;;0.50;;
55467;SDS011;41332;42.702;23.200;2022-11-21T02:37:59;2.65;;;1.35;;
55467;SDS011;41332;42.702;23.200;2022-11-21T02:40:29;0.98;;;0.45;;
55467;SDS011;41332;42.702;23.200;2022-11-21T02:45:42;1.33;;;0.52;;
55467;SDS011;41332;42.702;23.200;2022-11-21T02:50:35;2.03;;;0.68;;
55467;SDS011;41332;42.702;23.200;2022-11-21T02:53:02;3.67;;;0.90;;
55467;SDS011;41332;42.702;23.200;2022-11-21T02:55:29;2.25;;;0.98;;
55467;SDS011;41332;42.702;23.200;2022-11-21T02:57:54;2.60;;;0.70;;
55467;SDS011;41332;42.702;23.200;2022-11-21T03:00:20;1.25;;;0.73;;
55467;SDS011;41332;42.702;23.200;2022-11-21T03:02:46;2.28;;;0.77;;
55467;SDS011;41332;42.702;23.200;2022-11-21T03:05:12;5.60;;;1.00;;
55467;SDS011;41332;42.702;23.200;2022-11-21T03:07:40;4.68;;;0.70;;
55467;SDS011;41332;42.702;23.200;2022-11-21T03:10:06;4.10;;;1.35;;
55467;SDS011;41332;42.702;23.200;2022-11-21T03:12:34;4.55;;;0.98;;
55467;SDS011;41332;42.702;23.200;2022-11-21T03:15:00;2.15;;;0.88;;
55467;SDS011;41332;42.702;23.200;2022-11-21T03:17:25;2.25;;;1.00;;
55467;SDS011;41332;42.702;23.200;2022-11-21T03:19:51;0.30;;;0.30;;
55467;SDS011;41332;42.702;23.200;2022-11-21T03:22:16;7.88;;;0.93;;
55467;SDS011;41332;42.702;23.200;2022-11-21T03:24:41;1.92;;;0.65;;
55467;SDS011;41332;42.702;23.200;2022-11-21T03:27:07;3.20;;;0.65;;
55467;SDS011;41332;42.702;23.200;2022-11-21T03:29:32;6.88;;;0.98;;
55467;SDS011;41332;42.702;23.200;2022-11-21T03:31:58;3.25;;;0.80;;
55467;SDS011;41332;42.702;23.200;2022-11-21T03:34:23;3.08;;;0.68;;
55467;SDS011;41332;42.702;23.200;2022-11-21T03:36:50;1.88;;;0.90;;
55467;SDS011;41332;42.702;23.200;2022-11-21T03:39:16;4.57;;;1.20;;
55467;SDS011;41332;42.702;23.200;2022-11-21T03:41:41;1.13;;;0.80;;
55467;SDS011;41332;42.702;23.200;2022-11-21T03:44:07;2.13;;;1.00;;
55467;SDS011;41332;42.702;23.200;2022-11-21T03:46:34;2.08;;;0.90;;
55467;SDS011;41332;42.702;23.200;2022-11-21T03:49:01;3.33;;;1.15;;
55467;SDS011;41332;42.702;23.200;2022-11-21T03:51:27;6.15;;;1.13;;
55467;SDS011;41332;42.702;23.200;2022-11-21T03:53:53;3.10;;;0.98;;
55467;SDS011;41332;42.702;23.200;2022-11-21T03:56:19;7.63;;;1.13;;
55467;SDS011;41332;42.702;23.200;2022-11-21T03:58:44;0.95;;;0.57;;
55467;SDS011;41332;42.702;23.200;2022-11-21T04:01:10;4.10;;;1.58;;
55467;SDS011;41332;42.702;23.200;2022-11-21T04:03:37;5.15;;;0.98;;
55467;SDS011;41332;42.702;23.200;2022-11-21T04:06:04;7.32;;;1.25;;
55467;SDS011;41332;42.702;23.200;2022-11-21T04:08:29;2.33;;;0.93;;
55467;SDS011;41332;42.702;23.200;2022-11-21T04:10:55;3.63;;;1.23;;
55467;SDS011;41332;42.702;23.200;2022-11-21T04:13:20;5.43;;;1.27;;
55467;SDS011;41332;42.702;23.200;2022-11-21T04:15:46;3.28;;;1.08;;
55467;SDS011;41332;42.702;23.200;2022-11-21T04:18:12;3.25;;;1.50;;
55467;SDS011;41332;42.702;23.200;2022-11-21T04:20:38;6.28;;;1.55;;
55467;SDS011;41332;42.702;23.200;2022-11-21T04:23:04;7.05;;;1.35;;
55467;SDS011;41332;42.702;23.200;2022-11-21T04:25:30;3.28;;;0.68;;
55467;SDS011;41332;42.702;23.200;2022-11-21T04:27:56;3.33;;;1.48;;
55467;SDS011;41332;42.702;23.200;2022-11-21T04:30:22;5.97;;;1.10;;
55467;SDS011;41332;42.702;23.200;2022-11-21T04:32:54;1.98;;;0.95;;
55467;SDS011;41332;42.702;23.200;2022-11-21T04:35:20;7.03;;;2.13;;
55467;SDS011;41332;42.702;23.200;2022-11-21T04:37:47;2.22;;;1.02;;
55467;SDS011;41332;42.702;23.200;2022-11-21T04:40:13;7.72;;;2.55;;
55467;SDS011;41332;42.702;23.200;2022-11-21T04:42:45;5.80;;;1.75;;
55467;SDS011;41332;42.702;23.200;2022-11-21T04:45:12;4.93;;;1.65;;
55467;SDS011;41332;42.702;23.200;2022-11-21T04:47:39;7.35;;;2.08;;
55467;SDS011;41332;42.702;23.200;2022-11-21T04:50:05;12.95;;;1.48;;
55467;SDS011;41332;42.702;23.200;2022-11-21T04:52:32;6.60;;;1.95;;
55467;SDS011;41332;42.702;23.200;2022-11-21T04:54:57;6.60;;;1.48;;
55467;SDS011;41332;42.702;23.200;2022-11-21T04:57:23;7.10;;;1.77;;
55467;SDS011;41332;42.702;23.200;2022-11-21T04:59:49;2.50;;;1.50;;
55467;SDS011;41332;42.702;23.200;2022-11-21T05:02:14;5.07;;;1.17;;
55467;SDS011;41332;42.702;23.200;2022-11-21T05:04:39;1.23;;;0.93;;
55467;SDS011;41332;42.702;23.200;2022-11-21T05:07:05;10.70;;;2.13;;
55467;SDS011;41332;42.702;23.200;2022-11-21T05:09:30;5.38;;;1.10;;
55467;SDS011;41332;42.702;23.200;2022-11-21T05:11:56;6.28;;;1.85;;
55467;SDS011;41332;42.702;23.200;2022-11-21T05:14:40;5.95;;;1.00;;
55467;SDS011;41332;42.702;23.200;2022-11-21T05:17:05;7.20;;;1.52;;
55467;SDS011;41332;42.702;23.200;2022-11-21T05:19:30;6.13;;;1.40;;
55467;SDS011;41332;42.702;23.200;2022-11-21T05:21:56;2.42;;;1.17;;
55467;SDS011;41332;42.702;23.200;2022-11-21T05:24:21;5.50;;;1.30;;
55467;SDS011;41332;42.702;23.200;2022-11-21T05:26:47;8.80;;;1.65;;
55467;SDS011;41332;42.702;23.200;2022-11-21T05:29:12;6.20;;;1.40;;
55467;SDS011;41332;42.702;23.200;2022-11-21T05:31:38;4.88;;;1.40;;
55467;SDS011;41332;42.702;23.200;2022-11-21T05:34:03;2.13;;;1.50;;
55467;SDS011;41332;42.702;23.200;2022-11-21T05:36:28;3.38;;;1.08;;
55467;SDS011;41332;42.702;23.200;2022-11-21T05:38:54;2.47;;;1.58;;
55467;SDS011;41332;42.702;23.200;2022-11-21T05:41:19;6.10;;;1.42;;
55467;SDS011;41332;42.702;23.200;2022-11-21T05:43:45;2.83;;;0.98;;
55467;SDS011;41332;42.702;23.200;2022-11-21T05:46:10;3.05;;;1.20;;
55467;SDS011;41332;42.702;23.200;2022-11-21T05:48:40;4.40;;;1.48;;
55467;SDS011;41332;42.702;23.200;2022-11-21T05:51:06;3.67;;;1.58;;
55467;SDS011;41332;42.702;23.200;2022-11-21T05:53:32;0.22;;;0.22;;
55467;SDS011;41332;42.702;23.200;2022-11-21T05:56:05;0.38;;;0.20;;
55467;SDS011;41332;42.702;23.200;2022-11-21T05:58:32;0.10;;;0.10;;
55467;SDS011;41332;42.702;23.200;2022-11-21T06:00:58;0.17;;;0.17;;
55467;SDS011;41332;42.702;23.200;2022-11-21T06:03:24;0.47;;;0.20;;
55467;SDS011;41332;42.702;23.200;2022-11-21T06:06:02;0.85;;;0.10;;
55467;SDS011;41332;42.702;23.200;2022-11-21T06:08:28;0.20;;;0.20;;
55467;SDS011;41332;42.702;23.200;2022-11-21T06:10:54;0.28;;;0.28;;
55467;SDS011;41332;42.702;23.200;2022-11-21T06:13:20;0.22;;;0.22;;
55467;SDS011;41332;42.702;23.200;2022-11-21T06:18:18;0.40;;;0.30;;
55467;SDS011;41332;42.702;23.200;2022-11-21T06:20:44;2.40;;;0.20;;
55467;SDS011;41332;42.702;23.200;2022-11-21T06:23:09;0.10;;;0.10;;
55467;SDS011;41332;42.702;23.200;2022-11-21T06:25:35;0.10;;;0.10;;
55467;SDS011;41332;42.702;23.200;2022-11-21T06:28:01;0.20;;;0.20;;
55467;SDS011;41332;42.702;23.200;2022-11-21T06:30:26;0.05;;;0.05;;
55467;SDS011;41332;42.702;23.200;2022-11-21T06:32:51;0.08;;;0.08;;
55467;SDS011;41332;42.702;23.200;2022-11-21T06:35:17;0.47;;;0.30;;
55467;SDS011;41332;42.702;23.200;2022-11-21T06:37:42;0.20;;;0.20;;
55467;SDS011;41332;42.702;23.200;2022-11-21T06:40:08;0.22;;;0.22;;
55467;SDS011;41332;42.702;23.200;2022-11-21T06:42:34;0.22;;;0.20;;
55467;SDS011;41332;42.702;23.200;2022-11-21T06:44:59;0.10;;;0.10;;
55467;SDS011;41332;42.702;23.200;2022-11-21T06:47:24;0.90;;;0.30;;
55467;SDS011;41332;42.702;23.200;2022-11-21T06:49:50;0.43;;;0.30;;
55467;SDS011;41332;42.702;23.200;2022-11-21T06:52:15;0.30;;;0.20;;
55467;SDS011;41332;42.702;23.200;2022-11-21T06:54:41;1.08;;;0.47;;
55467;SDS011;41332;42.702;23.200;2022-11-21T06:57:06;0.68;;;0.52;;
55467;SDS011;41332;42.702;23.200;2022-11-21T06:59:32;0.55;;;0.28;;
55467;SDS011;41332;42.702;23.200;2022-11-21T07:01:57;0.22;;;0.20;;
55467;SDS011;41332;42.702;23.200;2022-11-21T07:04:22;0.73;;;0.40;;
55467;SDS011;41332;42.702;23.200;2022-11-21T07:06:48;0.85;;;0.30;;
55467;SDS011;41332;42.702;23.200;2022-11-21T07:09:13;0.20;;;0.20;;
55467;SDS011;41332;42.702;23.200;2022-11-21T07:11:38;0.43;;;0.40;;
55467;SDS011;41332;42.702;23.200;2022-11-21T07:14:04;2.05;;;0.55;;
55467;SDS011;41332;42.702;23.200;2022-11-21T07:16:29;1.30;;;0.70;;
55467;SDS011;41332;42.702;23.200;2022-11-21T07:18:56;0.60;;;0.25;;
55467;SDS011;41332;42.702;23.200;2022-11-21T07:21:22;0.20;;;0.20;;
55467;SDS011;41332;42.702;23.200;2022-11-21T07:23:47;0.52;;;0.40;;
55467;SDS011;41332;42.702;23.200;2022-11-21T07:26:12;0.15;;;0.15;;
55467;SDS011;41332;42.702;23.200;2022-11-21T07:28:38;0.30;;;0.30;;
55467;SDS011;41332;42.702;23.200;2022-11-21T07:31:04;0.57;;;0.45;;
55467;SDS011;41332;42.702;23.200;2022-11-21T07:33:29;0.28;;;0.28;;
55467;SDS011;41332;42.702;23.200;2022-11-21T07:35:55;0.20;;;0.20;;
55467;SDS011;41332;42.702;23.200;2022-11-21T07:38:21;0.45;;;0.40;;
55467;SDS011;41332;42.702;23.200;2022-11-21T07:40:47;0.68;;;0.68;;
55467;SDS011;41332;42.702;23.200;2022-11-21T07:43:13;0.40;;;0.40;;
55467;SDS011;41332;42.702;23.200;2022-11-21T07:45:38;0.32;;;0.32;;
55467;SDS011;41332;42.702;23.200;2022-11-21T07:48:08;0.57;;;0.20;;
55467;SDS011;41332;42.702;23.200;2022-11-21T07:50:34;0.20;;;0.20;;
55467;SDS011;41332;42.702;23.200;2022-11-21T07:53:00;0.30;;;0.30;;
55467;SDS011;41332;42.702;23.200;2022-11-21T07:55:27;0.35;;;0.35;;
55467;SDS011;41332;42.702;23.200;2022-11-21T07:57:56;1.05;;;0.50;;
55467;SDS011;41332;42.702;23.200;2022-11-21T08:00:27;0.38;;;0.38;;
55467;SDS011;41332;42.702;23.200;2022-11-21T08:02:53;0.40;;;0.40;;
55467;SDS011;41332;42.702;23.200;2022-11-21T08:05:18;0.50;;;0.40;;
55467;SDS011;41332;42.702;23.200;2022-11-21T08:07:44;0.30;;;0.30;;
55467;SDS011;41332;42.702;23.200;2022-11-21T08:10:09;0.20;;;0.20;;
55467;SDS011;41332;42.702;23.200;2022-11-21T08:12:35;1.08;;;0.43;;
55467;SDS011;41332;42.702;23.200;2022-11-21T08:15:00;0.32;;;0.20;;
55467;SDS011;41332;42.702;23.200;2022-11-21T08:21:05;0.30;;;0.30;;
55467;SDS011;41332;42.702;23.200;2022-11-21T08:27:39;0.47;;;0.40;;
55467;SDS011;41332;42.702;23.200;2022-11-21T08:30:45;0.25;;;0.25;;
55467;SDS011;41332;42.702;23.200;2022-11-21T08:33:54;0.25;;;0.25;;
55467;SDS011;41332;42.702;23.200;2022-11-21T08:36:23;0.40;;;0.40;;
55467;SDS011;41332;42.702;23.200;2022-11-21T08:38:48;0.75;;;0.50;;
55467;SDS011;41332;42.702;23.200;2022-11-21T08:41:14;0.20;;;0.20;;
55467;SDS011;41332;42.702;23.200;2022-11-21T08:44:03;0.30;;;0.28;;
55467;SDS011;41332;42.702;23.200;2022-11-21T08:46:29;0.30;;;0.30;;
55467;SDS011;41332;42.702;23.200;2022-11-21T08:48:58;1.75;;;0.25;;
55467;SDS011;41332;42.702;23.200;2022-11-21T08:51:23;0.68;;;0.47;;
55467;SDS011;41332;42.702;23.200;2022-11-21T08:53:49;0.68;;;0.57;;
55467;SDS011;41332;42.702;23.200;2022-11-21T08:56:14;0.73;;;0.70;;
55467;SDS011;41332;42.702;23.200;2022-11-21T08:58:40;0.60;;;0.60;;
55467;SDS011;41332;42.702;23.200;2022-11-21T09:01:05;0.38;;;0.32;;
55467;SDS011;41332;42.702;23.200;2022-11-21T09:03:31;0.30;;;0.30;;
55467;SDS011;41332;42.702;23.200;2022-11-21T09:05:57;0.20;;;0.20;;
55467;SDS011;41332;42.702;23.200;2022-11-21T09:08:23;1.08;;;0.47;;
55467;SDS011;41332;42.702;23.200;2022-11-21T09:10:49;0.30;;;0.30;;
55467;SDS011;41332;42.702;23.200;2022-11-21T09:13:14;0.20;;;0.20;;
55467;SDS011;41332;42.702;23.200;2022-11-21T09:15:40;0.50;;;0.50;;
55467;SDS011;41332;42.702;23.200;2022-11-21T09:18:34;0.45;;;0.45;;
55467;SDS011;41332;42.702;23.200;2022-11-21T09:21:00;0.63;;;0.63;;
55467;SDS011;41332;42.702;23.200;2022-11-21T09:23:25;0.60;;;0.60;;
55467;SDS011;41332;42.702;23.200;2022-11-21T09:25:50;0.60;;;0.60;;
55467;SDS011;41332;42.702;23.200;2022-11-21T09:28:16;0.30;;;0.30;;
55467;SDS011;41332;42.702;23.200;2022-11-21T09:30:41;0.52;;;0.52;;
55467;SDS011;41332;42.702;23.200;2022-11-21T09:33:09;0.50;;;0.50;;
55467;SDS011;41332;42.702;23.200;2022-11-21T09:35:36;1.45;;;0.80;;
55467;SDS011;41332;42.702;23.200;2022-11-21T09:38:02;1.55;;;0.65;;
55467;SDS011;41332;42.702;23.200;2022-11-21T09:40:29;0.40;;;0.40;;
55467;SDS011;41332;42.702;23.200;2022-11-21T09:46:09;0.50;;;0.50;;
55467;SDS011;41332;42.702;23.200;2022-11-21T09:49:21;1.85;;;0.73;;
55467;SDS011;41332;42.702;23.200;2022-11-21T09:51:31;0.55;;;0.55;;
55467;SDS011;41332;42.702;23.200;2022-11-21T09:54:05;1.25;;;0.55;;
55467;SDS011;41332;42.702;23.200;2022-11-21T09:56:41;0.50;;;0.50;;
55467;SDS011;41332;42.702;23.200;2022-11-21T10:01:45;0.85;;;0.85;;
55467;SDS011;41332;42.702;23.200;2022-11-21T10:04:10;0.98;;;0.90;;
55467;SDS011;41332;42.702;23.200;2022-11-21T10:23:44;0.75;;;0.75;;
55467;SDS011;41332;42.702;23.200;2022-11-21T10:26:39;2.35;;;2.13;;
55467;SDS011;41332;42.702;23.200;2022-11-21T10:32:00;3.35;;;2.10;;
55467;SDS011;41332;42.702;23.200;2022-11-21T10:34:34;5.53;;;3.35;;
55467;SDS011;41332;42.702;23.200;2022-11-21T10:37:06;2.25;;;2.05;;
55467;SDS011;41332;42.702;23.200;2022-11-21T10:39:50;1.83;;;1.40;;
55467;SDS011;41332;42.702;23.200;2022-11-21T10:42:34;4.95;;;4.20;;
55467;SDS011;41332;42.702;23.200;2022-11-21T10:45:04;5.93;;;3.95;;
55467;SDS011;41332;42.702;23.200;2022-11-21T10:47:43;2.92;;;2.35;;
55467;SDS011;41332;42.702;23.200;2022-11-21T10:55:59;1.23;;;0.88;;
55467;SDS011;41332;42.702;23.200;2022-11-21T10:58:50;2.95;;;2.00;;
55467;SDS011;41332;42.702;23.200;2022-11-21T11:01:34;1.85;;;1.60;;
55467;SDS011;41332;42.702;23.200;2022-11-21T11:06:35;2.42;;;2.17;;
55467;SDS011;41332;42.702;23.200;2022-11-21T11:09:02;1.98;;;1.73;;
55467;SDS011;41332;42.702;23.200;2022-11-21T11:11:30;1.85;;;1.70;;
55467;SDS011;41332;42.702;23.200;2022-11-21T11:13:57;1.98;;;1.75;;
55467;SDS011;41332;42.702;23.200;2022-11-21T11:16:25;1.92;;;1.42;;
55467;SDS011;41332;42.702;23.200;2022-11-21T11:19:05;0.80;;;0.80;;
55467;SDS011;41332;42.702;23.200;2022-11-21T11:24:06;2.70;;;1.67;;
55467;SDS011;41332;42.702;23.200;2022-11-21T11:34:20;1.10;;;1.00;;
55467;SDS011;41332;42.702;23.200;2022-11-21T11:36:54;1.45;;;1.25;;
55467;SDS011;41332;42.702;23.200;2022-11-21T11:45:16;1.60;;;1.10;;
55467;SDS011;41332;42.702;23.200;2022-11-21T11:48:07;1.42;;;1.10;;
55467;SDS011;41332;42.702;23.200;2022-11-21T11:50:40;0.93;;;0.93;;
55467;SDS011;41332;42.702;23.200;2022-11-21T11:55:46;2.17;;;1.98;;
55467;SDS011;41332;42.702;23.200;2022-11-21T11:58:17;1.90;;;1.77;;
55467;SDS011;41332;42.702;23.200;2022-11-21T12:00:45;1.05;;;0.70;;
55467;SDS011;41332;42.702;23.200;2022-11-21T12:03:23;1.08;;;0.90;;
55467;SDS011;41332;42.702;23.200;2022-11-21T12:08:33;0.80;;;0.80;;
55467;SDS011;41332;42.702;23.200;2022-11-21T12:14:17;0.50;;;0.50;;
55467;SDS011;41332;42.702;23.200;2022-11-21T12:17:12;0.63;;;0.63;;
55467;SDS011;41332;42.702;23.200;2022-11-21T12:19:42;0.60;;;0.60;;
55467;SDS011;41332;42.702;23.200;2022-11-21T12:22:09;1.15;;;0.85;;
55467;SDS011;41332;42.702;23.200;2022-11-21T12:24:35;3.08;;;1.45;;
55467;SDS011;41332;42.702;23.200;2022-11-21T12:49:04;3.35;;;2.08;;
55467;SDS011;41332;42.702;23.200;2022-11-21T13:00:38;1.02;;;1.02;;
55467;SDS011;41332;42.702;23.200;2022-11-21T13:06:11;1.40;;;1.30;;
55467;SDS011;41332;42.702;23.200;2022-11-21T13:08:41;1.38;;;1.25;;
55467;SDS011;41332;42.702;23.200;2022-11-21T13:14:11;1.70;;;1.60;;
55467;SDS011;41332;42.702;23.200;2022-11-21T13:16:58;1.92;;;1.83;;
55467;SDS011;41332;42.702;23.200;2022-11-21T13:19:53;1.67;;;1.55;;
55467;SDS011;41332;42.702;23.200;2022-11-21T13:22:51;1.90;;;1.80;;
55467;SDS011;41332;42.702;23.200;2022-11-21T13:27:54;2.38;;;2.17;;
55467;SDS011;41332;42.702;23.200;2022-11-21T13:30:53;2.08;;;1.92;;
55467;SDS011;41332;42.702;23.200;2022-11-21T13:36:04;2.17;;;2.03;;
55467;SDS011;41332;42.702;23.200;2022-11-21T13:47:02;3.20;;;2.78;;
55467;SDS011;41332;42.702;23.200;2022-11-21T13:52:02;4.18;;;3.72;;
55467;SDS011;41332;42.702;23.200;2022-11-21T13:54:54;4.55;;;4.05;;
55467;SDS011;41332;42.702;23.200;2022-11-21T14:03:04;6.68;;;2.95;;
55467;SDS011;41332;42.702;23.200;2022-11-21T14:06:08;3.17;;;2.20;;
55467;SDS011;41332;42.702;23.200;2022-11-21T14:09:03;4.40;;;3.20;;
55467;SDS011;41332;42.702;23.200;2022-11-21T14:19:57;3.20;;;2.95;;
55467;SDS011;41332;42.702;23.200;2022-11-21T14:22:30;3.88;;;2.20;;
55467;SDS011;41332;42.702;23.200;2022-11-21T14:27:39;3.40;;;2.33;;
55467;SDS011;41332;42.702;23.200;2022-11-21T14:30:28;2.42;;;2.22;;
55467;SDS011;41332;42.702;23.200;2022-11-21T14:35:54;5.70;;;2.90;;
55467;SDS011;41332;42.702;23.200;2022-11-21T14:38:27;2.67;;;2.22;;
55467;SDS011;41332;42.702;23.200;2022-11-21T14:43:46;2.22;;;2.13;;
55467;SDS011;41332;42.702;23.200;2022-11-21T14:46:13;2.55;;;2.35;;
55467;SDS011;41332;42.702;23.200;2022-11-21T14:48:40;2.72;;;2.53;;
55467;SDS011;41332;42.702;23.200;2022-11-21T14:51:07;2.40;;;2.28;;
55467;SDS011;41332;42.702;23.200;2022-11-21T14:53:38;2.60;;;2.40;;
55467;SDS011;41332;42.702;23.200;2022-11-21T14:56:06;2.97;;;2.35;;
55467;SDS011;41332;42.702;23.200;2022-11-21T14:58:36;2.78;;;2.55;;
55467;SDS011;41332;42.702;23.200;2022-11-21T15:01:06;2.70;;;2.42;;
55467;SDS011;41332;42.702;23.200;2022-11-21T15:03:52;3.58;;;2.70;;
55467;SDS011;41332;42.702;23.200;2022-11-21T15:06:19;2.78;;;2.55;;
55467;SDS011;41332;42.702;23.200;2022-11-21T15:08:45;2.50;;;2.33;;
55467;SDS011;41332;42.702;23.200;2022-11-21T15:11:10;3.00;;;2.40;;
55467;SDS011;41332;42.702;23.200;2022-11-21T15:13:37;2.88;;;2.63;;
55467;SDS011;41332;42.702;23.200;2022-11-21T15:16:03;3.08;;;2.78;;
55467;SDS011;41332;42.702;23.200;2022-11-21T15:18:29;4.72;;;4.18;;
55467;SDS011;41332;42.702;23.200;2022-11-21T15:20:56;4.15;;;3.72;;
55467;SDS011;41332;42.702;23.200;2022-11-21T15:26:04;3.78;;;3.13;;
55467;SDS011;41332;42.702;23.200;2022-11-21T15:28:30;4.30;;;3.28;;
55467;SDS011;41332;42.702;23.200;2022-11-21T15:34:00;3.65;;;3.35;;
55467;SDS011;41332;42.702;23.200;2022-11-21T15:36:29;3.17;;;2.97;;
55467;SDS011;41332;42.702;23.200;2022-11-21T15:41:37;4.65;;;4.05;;
55467;SDS011;41332;42.702;23.200;2022-11-21T15:46:28;3.85;;;3.55;;
55467;SDS011;41332;42.702;23.200;2022-11-21T15:48:56;3.80;;;3.50;;
55467;SDS011;41332;42.702;23.200;2022-11-21T15:51:23;5.82;;;3.97;;
55467;SDS011;41332;42.702;23.200;2022-11-21T15:53:50;5.25;;;3.78;;
55467;SDS011;41332;42.702;23.200;2022-11-21T15:56:17;4.28;;;3.80;;
55467;SDS011;41332;42.702;23.200;2022-11-21T15:58:44;3.58;;;3.28;;
55467;SDS011;41332;42.702;23.200;2022-11-21T16:03:40;3.28;;;3.00;;
55467;SDS011;41332;42.702;23.200;2022-11-21T16:06:06;2.78;;;2.58;;
55467;SDS011;41332;42.702;23.200;2022-11-21T16:08:31;3.13;;;2.38;;
55467;SDS011;41332;42.702;23.200;2022-11-21T16:10:56;2.38;;;2.17;;
55467;SDS011;41332;42.702;23.200;2022-11-21T16:13:22;3.92;;;2.95;;
55467;SDS011;41332;42.702;23.200;2022-11-21T16:15:47;3.15;;;2.60;;
55467;SDS011;41332;42.702;23.200;2022-11-21T16:18:12;3.65;;;2.90;;
55467;SDS011;41332;42.702;23.200;2022-11-21T16:20:38;2.88;;;2.67;;
55467;SDS011;41332;42.702;23.200;2022-11-21T16:23:03;2.67;;;2.47;;
55467;SDS011;41332;42.702;23.200;2022-11-21T16:25:29;3.30;;;2.53;;
55467;SDS011;41332;42.702;23.200;2022-11-21T16:27:55;2.72;;;2.47;;
55467;SDS011;41332;42.702;23.200;2022-11-21T16:30:22;2.13;;;2.03;;
55467;SDS011;41332;42.702;23.200;2022-11-21T16:32:47;3.42;;;2.85;;
55467;SDS011;41332;42.702;23.200;2022-11-21T16:35:15;3.20;;;2.90;;
55467;SDS011;41332;42.702;23.200;2022-11-21T16:37:40;5.35;;;3.17;;
55467;SDS011;41332;42.702;23.200;2022-11-21T16:40:06;5.00;;;3.20;;
55467;SDS011;41332;42.702;23.200;2022-11-21T16:42:31;5.50;;;3.72;;
55467;SDS011;41332;42.702;23.200;2022-11-21T16:44:57;5.63;;;3.95;;
55467;SDS011;41332;42.702;23.200;2022-11-21T16:47:22;5.28;;;3.58;;
55467;SDS011;41332;42.702;23.200;2022-11-21T16:49:48;4.07;;;3.33;;
55467;SDS011;41332;42.702;23.200;2022-11-21T16:52:13;3.97;;;3.42;;
55467;SDS011;41332;42.702;23.200;2022-11-21T16:54:38;4.15;;;3.55;;
55467;SDS011;41332;42.702;23.200;2022-11-21T16:57:04;6.22;;;3.85;;
55467;SDS011;41332;42.702;23.200;2022-11-21T16:59:32;3.83;;;3.15;;
55467;SDS011;41332;42.702;23.200;2022-11-21T17:01:58;3.40;;;2.97;;
55467;SDS011;41332;42.702;23.200;2022-11-21T17:04:23;4.47;;;3.47;;
55467;SDS011;41332;42.702;23.200;2022-11-21T17:06:48;2.80;;;2.60;;
55467;SDS011;41332;42.702;23.200;2022-11-21T17:09:14;6.55;;;3.60;;
55467;SDS011;41332;42.702;23.200;2022-11-21T17:11:40;3.83;;;3.15;;
55467;SDS011;41332;42.702;23.200;2022-11-21T17:14:05;4.85;;;3.17;;
55467;SDS011;41332;42.702;23.200;2022-11-21T17:16:32;3.78;;;2.75;;
55467;SDS011;41332;42.702;23.200;2022-11-21T17:18:59;4.95;;;4.13;;
55467;SDS011;41332;42.702;23.200;2022-11-21T17:21:25;3.53;;;3.22;;
55467;SDS011;41332;42.702;23.200;2022-11-21T17:23:52;3.40;;;3.10;;
55467;SDS011;41332;42.702;23.200;2022-11-21T17:26:21;5.18;;;3.83;;
55467;SDS011;41332;42.702;23.200;2022-11-21T17:28:55;3.80;;;2.88;;
55467;SDS011;41332;42.702;23.200;2022-11-21T17:31:21;3.80;;;3.40;;
55467;SDS011;41332;42.702;23.200;2022-11-21T17:33:48;3.08;;;2.85;;
55467;SDS011;41332;42.702;23.200;2022-11-21T17:36:16;4.18;;;3.38;;
55467;SDS011;41332;42.702;23.200;2022-11-21T17:38:46;4.28;;;3.67;;
55467;SDS011;41332;42.702;23.200;2022-11-21T17:41:12;3.28;;;3.08;;